Time;durP1;ratioP1;P1;durP2;ratioP2;P2;SDS_P1;SDS_P2;PMS_P1;PMS_P2;Temp;Humidity;BMP_temperature;BMP_pressure;BME280_temperature;BME280_humidity;BME280_pressure;Samples;Min_cycle;Max_cycle;Signal;HPM_P1;HPM_P2
2022/03/08 00:00:20;;;;;;;7.13;6.40;;;3.20;90.20;;;;;;5032998;28;20228;-69
2022/03/08 00:02:46;;;;;;;6.53;5.23;;;3.10;90.20;;;;;;5017478;28;20419;-69
2022/03/08 00:05:11;;;;;;;6.20;5.60;;;3.10;90.30;;;;;;5036042;28;20421;-67
2022/03/08 00:07:37;;;;;;;7.97;6.20;;;3.00;90.50;;;;;;5035443;28;20970;-68
2022/03/08 00:10:05;;;;;;;6.87;5.23;;;2.90;90.80;;;;;;5034965;28;20279;-69
2022/03/08 00:12:31;;;;;;;8.70;6.00;;;2.70;91.40;;;;;;5035003;28;20163;-68
2022/03/08 00:14:56;;;;;;;6.07;5.47;;;2.60;91.90;;;;;;5035274;28;20401;-70
2022/03/08 00:17:22;;;;;;;7.57;6.13;;;2.60;92.10;;;;;;5020268;28;20495;-70
2022/03/08 00:19:47;;;;;;;6.93;6.23;;;2.60;92.30;;;;;;5038397;28;20191;-69
2022/03/08 00:22:13;;;;;;;9.83;5.63;;;2.60;92.40;;;;;;5036328;28;20175;-69
2022/03/08 00:24:39;;;;;;;9.17;6.47;;;2.70;92.40;;;;;;5035818;28;20174;-70
2022/03/08 00:27:04;;;;;;;6.53;5.90;;;2.70;92.30;;;;;;5035648;28;20411;-69
2022/03/08 00:29:30;;;;;;;8.40;6.77;;;2.60;92.40;;;;;;5035914;28;20199;-68
2022/03/08 00:31:56;;;;;;;6.30;5.53;;;2.60;92.50;;;;;;5036177;28;20205;-68
2022/03/08 00:34:21;;;;;;;6.53;5.43;;;2.60;92.50;;;;;;5035526;28;20174;-69
2022/03/08 00:36:46;;;;;;;7.57;5.90;;;2.60;92.70;;;;;;5036656;28;20169;-68
2022/03/08 00:39:12;;;;;;;7.73;5.57;;;2.60;92.80;;;;;;5040583;28;20214;-69
2022/03/08 00:41:38;;;;;;;6.47;5.93;;;2.60;92.70;;;;;;5035398;28;20258;-69
2022/03/08 00:44:06;;;;;;;6.67;5.97;;;2.60;93.10;;;;;;5035191;28;20186;-69
2022/03/08 00:46:31;;;;;;;7.07;6.37;;;2.60;92.90;;;;;;5034475;28;20172;-68
2022/03/08 00:48:57;;;;;;;7.93;6.30;;;2.60;92.90;;;;;;5034182;28;20468;-68
2022/03/08 00:51:23;;;;;;;7.23;6.53;;;2.60;93.00;;;;;;5016987;28;20210;-68
2022/03/08 00:53:49;;;;;;;7.47;5.83;;;2.60;93.10;;;;;;5034968;28;20197;-68
2022/03/08 00:56:14;;;;;;;6.73;5.83;;;2.60;93.00;;;;;;5036928;28;20407;-70
2022/03/08 00:58:41;;;;;;;7.60;6.10;;;2.50;92.90;;;;;;5035152;28;20215;-69
2022/03/08 01:01:07;;;;;;;7.97;6.70;;;2.50;93.20;;;;;;5016747;28;20418;-69
2022/03/08 01:03:33;;;;;;;7.67;6.00;;;2.40;92.80;;;;;;5033740;28;20421;-69
2022/03/08 01:05:59;;;;;;;6.30;5.70;;;2.40;92.90;;;;;;5034169;28;20414;-69
2022/03/08 01:08:24;;;;;;;9.10;6.20;;;2.50;92.90;;;;;;5033963;28;20480;-69
2022/03/08 01:10:50;;;;;;;6.43;5.60;;;2.60;93.30;;;;;;5034029;28;20679;-68
2022/03/08 01:13:16;;;;;;;7.87;6.67;;;2.50;93.50;;;;;;5015331;28;20168;-69
2022/03/08 01:15:42;;;;;;;9.60;6.13;;;2.50;93.60;;;;;;5033983;28;20432;-69
2022/03/08 01:18:07;;;;;;;7.67;6.23;;;2.60;93.60;;;;;;5034141;28;20173;-68
2022/03/08 01:20:33;;;;;;;7.33;6.63;;;2.60;93.60;;;;;;5033945;28;20183;-69
2022/03/08 01:22:58;;;;;;;6.73;6.13;;;2.50;93.60;;;;;;5033423;28;20179;-69
2022/03/08 01:25:24;;;;;;;7.73;6.00;;;2.50;93.60;;;;;;5033857;28;20179;-68
2022/03/08 01:27:50;;;;;;;6.80;5.77;;;2.50;93.70;;;;;;5033885;28;20174;-69
2022/03/08 01:30:20;;;;;;;7.80;6.00;;;2.50;93.70;;;;;;5034217;28;20564;-69
2022/03/08 01:32:45;;;;;;;7.13;6.40;;;2.50;93.70;;;;;;5033751;28;20920;-70
2022/03/08 01:35:12;;;;;;;8.27;6.67;;;2.50;93.60;;;;;;5033385;28;20414;-69
2022/03/08 01:37:38;;;;;;;6.60;5.93;;;2.50;93.60;;;;;;5033670;28;20159;-70
2022/03/08 01:40:05;;;;;;;9.60;6.10;;;2.40;93.20;;;;;;5034084;28;20961;-69
2022/03/08 01:42:31;;;;;;;6.93;6.30;;;2.50;92.80;;;;;;5032870;28;20253;-69
2022/03/08 01:44:57;;;;;;;7.00;5.60;;;2.40;92.50;;;;;;5033547;28;20490;-69
2022/03/08 01:47:24;;;;;;;7.23;6.53;;;2.40;92.70;;;;;;5032981;28;20433;-69
2022/03/08 01:49:51;;;;;;;7.10;6.40;;;2.50;92.50;;;;;;5032315;28;20208;-69
2022/03/08 01:52:20;;;;;;;7.90;7.10;;;2.60;91.90;;;;;;5032565;28;20406;-69
2022/03/08 01:54:45;;;;;;;6.90;6.30;;;2.60;91.40;;;;;;5032914;28;20509;-69
2022/03/08 01:57:12;;;;;;;7.40;6.80;;;2.70;91.30;;;;;;5033011;28;20926;-69
2022/03/08 01:59:39;;;;;;;6.53;5.77;;;2.70;91.10;;;;;;5032763;28;20210;-70
2022/03/08 02:02:05;;;;;;;8.03;6.80;;;2.80;90.90;;;;;;5066140;22;20500;-69
2022/03/08 02:04:30;;;;;;;8.70;6.37;;;2.80;90.80;;;;;;5032033;28;20485;-69
2022/03/08 02:06:56;;;;;;;7.37;6.63;;;2.90;90.50;;;;;;5031900;28;20573;-69
2022/03/08 02:09:22;;;;;;;8.20;6.50;;;2.90;90.40;;;;;;5032047;28;20171;-70
2022/03/08 02:11:48;;;;;;;8.10;6.60;;;3.00;90.30;;;;;;5031348;28;20213;-69
2022/03/08 02:14:15;;;;;;;7.20;6.47;;;3.00;90.20;;;;;;5031868;28;20660;-69
2022/03/08 02:16:41;;;;;;;8.37;7.33;;;3.10;90.10;;;;;;5031612;28;20783;-70
2022/03/08 02:19:11;;;;;;;7.83;7.10;;;3.10;89.90;;;;;;5031927;28;20406;-70
2022/03/08 02:21:36;;;;;;;9.13;7.47;;;3.20;89.50;;;;;;5031684;28;20664;-68
2022/03/08 02:24:02;;;;;;;7.23;6.50;;;3.20;89.20;;;;;;5031875;28;20412;-69
2022/03/08 02:26:28;;;;;;;7.37;6.63;;;3.20;89.40;;;;;;5031829;28;20176;-69
2022/03/08 02:28:55;;;;;;;7.90;7.00;;;3.20;88.70;;;;;;5031549;28;20424;-69
2022/03/08 02:31:20;;;;;;;8.60;7.27;;;3.30;88.70;;;;;;5031453;28;20707;-69
2022/03/08 02:33:46;;;;;;;8.17;7.33;;;3.30;88.50;;;;;;5031289;28;20412;-69
2022/03/08 02:36:11;;;;;;;7.30;6.53;;;3.30;88.30;;;;;;5031668;28;20177;-69
2022/03/08 02:38:37;;;;;;;7.60;6.90;;;3.30;88.10;;;;;;5031297;28;20219;-69
2022/03/08 02:41:02;;;;;;;7.30;6.60;;;3.20;88.10;;;;;;5031538;28;20681;-68
2022/03/08 02:43:28;;;;;;;7.43;6.67;;;3.10;88.20;;;;;;5031165;28;20188;-69
2022/03/08 02:45:54;;;;;;;7.37;6.47;;;3.10;88.50;;;;;;5031605;28;20590;-69
2022/03/08 02:48:20;;;;;;;6.67;5.97;;;3.20;88.60;;;;;;5030960;28;20189;-70
2022/03/08 02:50:45;;;;;;;8.90;7.23;;;3.20;88.70;;;;;;5030989;28;20218;-70
2022/03/08 02:53:11;;;;;;;8.77;7.07;;;3.20;88.80;;;;;;5031059;28;20176;-70
2022/03/08 02:55:36;;;;;;;7.47;6.67;;;3.20;88.80;;;;;;5031484;28;20167;-70
2022/03/08 02:58:04;;;;;;;7.30;6.60;;;3.10;88.60;;;;;;5013527;28;20184;-69
2022/03/08 03:00:30;;;;;;;7.03;6.33;;;3.20;88.70;;;;;;5030949;28;20462;-69
2022/03/08 03:02:56;;;;;;;7.47;6.70;;;3.20;88.70;;;;;;5030937;28;20404;-69
2022/03/08 03:05:22;;;;;;;7.27;6.53;;;3.20;88.60;;;;;;5031414;28;20414;-69
2022/03/08 03:07:48;;;;;;;8.53;6.60;;;3.20;88.70;;;;;;5031231;28;20474;-68
2022/03/08 03:10:17;;;;;;;9.73;6.87;;;3.10;88.40;;;;;;5031126;28;20223;-69
2022/03/08 03:12:43;;;;;;;12.43;6.87;;;3.10;88.70;;;;;;5030846;28;20191;-69
2022/03/08 03:15:13;;;;;;;7.10;6.30;;;3.00;89.00;;;;;;5031367;28;20408;-69
2022/03/08 03:17:39;;;;;;;9.07;6.57;;;3.10;89.30;;;;;;5031148;28;20896;-69
2022/03/08 03:20:07;;;;;;;8.23;6.80;;;3.20;89.40;;;;;;5031162;28;20853;-69
2022/03/08 03:22:33;;;;;;;7.83;7.03;;;3.10;89.10;;;;;;5030804;28;20409;-69
2022/03/08 03:24:58;;;;;;;9.17;7.30;;;3.10;89.10;;;;;;5013469;28;20420;-69
2022/03/08 03:27:24;;;;;;;9.67;7.27;;;3.10;89.20;;;;;;5031147;28;20408;-69
2022/03/08 03:29:49;;;;;;;7.90;6.93;;;3.10;89.10;;;;;;5030641;28;20198;-69
2022/03/08 03:32:15;;;;;;;8.97;7.17;;;3.20;89.30;;;;;;5030775;28;20175;-70
2022/03/08 03:34:40;;;;;;;7.93;6.90;;;3.10;89.00;;;;;;5030992;28;20190;-69
2022/03/08 03:37:06;;;;;;;7.70;6.60;;;3.10;89.00;;;;;;5032745;28;20187;-70
2022/03/08 03:39:31;;;;;;;8.10;7.00;;;3.00;89.30;;;;;;5034817;28;20178;-68
2022/03/08 03:41:57;;;;;;;9.03;7.27;;;3.10;89.40;;;;;;5034394;28;20210;-68
2022/03/08 03:44:23;;;;;;;7.93;7.13;;;3.10;89.40;;;;;;5034617;28;20184;-68
2022/03/08 03:46:48;;;;;;;7.93;7.20;;;3.10;89.50;;;;;;5034807;28;20548;-69
2022/03/08 03:49:14;;;;;;;7.30;6.60;;;3.00;89.40;;;;;;5016161;28;20294;-69
2022/03/08 03:51:40;;;;;;;6.90;6.30;;;3.00;89.70;;;;;;5034352;28;20759;-69
2022/03/08 03:54:06;;;;;;;7.13;6.40;;;3.00;89.90;;;;;;5034541;28;20258;-69
2022/03/08 03:56:31;;;;;;;8.97;7.13;;;3.00;90.00;;;;;;5034372;28;20453;-69
2022/03/08 03:58:57;;;;;;;8.20;6.97;;;3.00;89.90;;;;;;5034297;28;20178;-69
2022/03/08 04:01:22;;;;;;;8.90;7.50;;;3.00;89.90;;;;;;5034100;28;20223;-68
2022/03/08 04:03:48;;;;;;;7.47;6.60;;;3.00;90.00;;;;;;5034165;28;20254;-69
2022/03/08 04:06:15;;;;;;;7.90;6.80;;;3.00;89.90;;;;;;5034289;28;20202;-69
2022/03/08 04:08:40;;;;;;;9.10;6.63;;;3.00;90.00;;;;;;5016463;28;20186;-68
2022/03/08 04:11:06;;;;;;;7.83;6.40;;;2.90;90.10;;;;;;5033931;28;20583;-69
2022/03/08 04:13:31;;;;;;;8.67;6.77;;;2.90;90.00;;;;;;5033670;28;20208;-70
2022/03/08 04:15:57;;;;;;;7.50;6.80;;;2.90;90.10;;;;;;5034045;28;20624;-69
2022/03/08 04:18:22;;;;;;;7.77;6.80;;;3.00;90.10;;;;;;5034001;28;20700;-70
2022/03/08 04:20:48;;;;;;;7.20;6.30;;;3.00;90.00;;;;;;5033872;28;20196;-69
2022/03/08 04:23:13;;;;;;;8.80;6.40;;;3.00;90.00;;;;;;5034014;28;20230;-70
2022/03/08 04:25:39;;;;;;;7.47;6.73;;;3.00;90.00;;;;;;5033693;28;20275;-70
2022/03/08 04:28:05;;;;;;;7.33;6.43;;;3.00;90.00;;;;;;5032909;28;20187;-68
2022/03/08 04:30:31;;;;;;;7.23;6.50;;;3.00;89.90;;;;;;5033990;28;20216;-69
2022/03/08 04:32:57;;;;;;;7.17;6.27;;;3.00;89.90;;;;;;5033428;28;20448;-70
2022/03/08 04:35:23;;;;;;;8.30;7.17;;;3.00;89.80;;;;;;5034067;28;20402;-69
2022/03/08 04:37:49;;;;;;;8.63;7.60;;;3.00;90.00;;;;;;5033495;28;20704;-69
2022/03/08 04:40:15;;;;;;;7.20;6.50;;;3.00;90.20;;;;;;5033605;28;20197;-69
2022/03/08 04:42:42;;;;;;;7.73;6.47;;;3.00;90.10;;;;;;5033345;28;20423;-69
2022/03/08 04:45:09;;;;;;;8.03;6.90;;;3.00;89.70;;;;;;5015868;28;20420;-70
2022/03/08 04:47:35;;;;;;;7.00;6.30;;;3.00;89.80;;;;;;5032865;28;20472;-68
2022/03/08 04:50:02;;;;;;;7.77;6.80;;;3.00;89.80;;;;;;5032161;28;20972;-69
2022/03/08 04:52:28;;;;;;;6.60;6.03;;;3.00;89.70;;;;;;5033110;28;20818;-69
2022/03/08 04:54:53;;;;;;;6.37;5.60;;;3.00;89.80;;;;;;5033464;28;20437;-69
2022/03/08 04:57:19;;;;;;;8.47;7.13;;;3.00;89.80;;;;;;5033104;28;20179;-68
2022/03/08 04:59:44;;;;;;;7.60;6.87;;;3.00;89.60;;;;;;5033294;28;20178;-69
2022/03/08 05:02:10;;;;;;;10.00;7.37;;;3.10;89.70;;;;;;5033023;28;20186;-70
2022/03/08 05:04:35;;;;;;;8.63;6.67;;;3.10;89.60;;;;;;5033279;28;20698;-71
2022/03/08 05:07:01;;;;;;;8.30;7.00;;;3.00;89.60;;;;;;5032863;28;20201;-70
2022/03/08 05:09:26;;;;;;;11.00;6.60;;;3.00;89.90;;;;;;5033066;28;20172;-70
2022/03/08 05:11:52;;;;;;;9.13;7.37;;;2.90;89.90;;;;;;5032724;28;20204;-69
2022/03/08 05:14:17;;;;;;;8.33;7.37;;;3.00;90.00;;;;;;5034257;28;20257;-69
2022/03/08 05:16:43;;;;;;;8.03;7.23;;;3.00;89.80;;;;;;5033481;28;20717;-70
2022/03/08 05:19:08;;;;;;;8.10;7.27;;;3.00;89.60;;;;;;5033241;28;20227;-70
2022/03/08 05:21:34;;;;;;;12.80;7.27;;;3.00;89.30;;;;;;5032796;28;20215;-69
2022/03/08 05:23:59;;;;;;;8.90;8.00;;;3.00;89.40;;;;;;5032714;28;20192;-72
2022/03/08 05:26:25;;;;;;;9.93;8.57;;;2.90;89.50;;;;;;5033138;28;20183;-70
2022/03/08 05:28:50;;;;;;;8.90;7.70;;;2.80;90.10;;;;;;5032902;28;20624;-69
2022/03/08 05:31:16;;;;;;;7.10;6.40;;;2.80;90.20;;;;;;5032806;28;20203;-70
2022/03/08 05:33:41;;;;;;;7.43;6.73;;;2.80;90.10;;;;;;5032406;28;20179;-71
2022/03/08 05:36:07;;;;;;;7.70;6.70;;;2.80;90.00;;;;;;5032490;28;20644;-69
2022/03/08 05:38:33;;;;;;;7.37;6.67;;;2.80;89.70;;;;;;5032952;28;20167;-69
2022/03/08 05:40:59;;;;;;;9.17;6.83;;;2.80;89.50;;;;;;5032765;28;20187;-70
2022/03/08 05:43:25;;;;;;;8.20;6.83;;;2.80;89.30;;;;;;5032412;28;20170;-70
2022/03/08 05:45:51;;;;;;;7.60;6.23;;;2.80;88.90;;;;;;5032494;28;20926;-69
2022/03/08 05:48:16;;;;;;;9.43;6.80;;;2.90;88.80;;;;;;5032006;28;20471;-70
2022/03/08 05:50:42;;;;;;;9.77;7.40;;;2.80;88.90;;;;;;5032364;28;20619;-69
2022/03/08 05:53:07;;;;;;;10.50;7.07;;;2.80;89.20;;;;;;5032368;28;20195;-70
2022/03/08 05:55:33;;;;;;;8.37;7.20;;;2.90;89.10;;;;;;5032254;28;20175;-69
2022/03/08 05:57:59;;;;;;;7.33;6.57;;;2.90;89.00;;;;;;5032412;28;20199;-71
2022/03/08 06:00:24;;;;;;;7.07;6.30;;;2.90;88.60;;;;;;5032092;28;20206;-69
2022/03/08 06:02:50;;;;;;;10.07;8.93;;;2.90;88.40;;;;;;5031950;28;20180;-70
2022/03/08 06:05:15;;;;;;;7.83;7.03;;;3.00;88.30;;;;;;5032663;28;20243;-70
2022/03/08 06:07:41;;;;;;;9.70;7.67;;;3.00;88.00;;;;;;5032307;28;20185;-70
2022/03/08 06:10:09;;;;;;;9.67;6.90;;;3.10;88.00;;;;;;5032194;28;20242;-70
2022/03/08 06:12:35;;;;;;;9.10;7.60;;;3.00;87.60;;;;;;5031868;28;20834;-70
2022/03/08 06:15:02;;;;;;;9.10;6.90;;;3.10;87.60;;;;;;5032038;28;20421;-70
2022/03/08 06:17:27;;;;;;;8.90;6.33;;;3.10;87.10;;;;;;5032012;28;21088;-71
2022/03/08 06:19:53;;;;;;;8.07;6.60;;;3.00;86.80;;;;;;5032696;28;20496;-71
2022/03/08 06:22:18;;;;;;;6.87;5.90;;;3.10;87.10;;;;;;5031942;28;20259;-70
2022/03/08 06:24:44;;;;;;;8.77;7.40;;;3.10;87.10;;;;;;5031929;28;20177;-69
2022/03/08 06:27:10;;;;;;;11.00;8.40;;;3.10;87.10;;;;;;5032157;28;20184;-70
2022/03/08 06:29:35;;;;;;;8.10;5.80;;;3.10;87.10;;;;;;5031942;28;20661;-70
2022/03/08 06:32:01;;;;;;;10.67;7.00;;;3.10;86.90;;;;;;5031442;28;20204;-70
2022/03/08 06:34:26;;;;;;;8.40;6.50;;;3.10;86.60;;;;;;5031812;28;20631;-70
2022/03/08 06:36:52;;;;;;;8.17;7.40;;;3.10;86.60;;;;;;5031566;28;20213;-70
2022/03/08 06:39:17;;;;;;;7.43;6.73;;;3.10;86.50;;;;;;5031615;28;20259;-69
2022/03/08 06:41:43;;;;;;;8.57;7.47;;;3.10;86.70;;;;;;5031359;28;20198;-70
2022/03/08 06:44:09;;;;;;;12.93;7.50;;;3.20;86.90;;;;;;5031303;28;20655;-69
2022/03/08 06:46:35;;;;;;;11.13;7.23;;;3.20;87.60;;;;;;5031495;28;20421;-69
2022/03/08 06:49:00;;;;;;;8.87;6.77;;;3.30;86.60;;;;;;5031975;28;20585;-71
2022/03/08 06:51:26;;;;;;;11.13;6.77;;;3.30;86.40;;;;;;5013399;28;20216;-69
2022/03/08 06:53:51;;;;;;;10.10;7.37;;;3.30;86.40;;;;;;5031593;28;20269;-71
2022/03/08 06:56:17;;;;;;;8.77;7.37;;;3.30;86.20;;;;;;5031513;28;20179;-70
2022/03/08 06:58:42;;;;;;;9.63;7.43;;;3.40;86.50;;;;;;5031734;28;20519;-70
2022/03/08 07:01:08;;;;;;;7.00;6.30;;;3.40;86.40;;;;;;5031388;28;20697;-69
2022/03/08 07:03:33;;;;;;;10.93;6.50;;;3.40;86.20;;;;;;5031251;28;20230;-68
2022/03/08 07:05:59;;;;;;;8.60;7.70;;;3.40;86.40;;;;;;5031694;28;20178;-69
2022/03/08 07:08:24;;;;;;;8.63;7.73;;;3.50;86.60;;;;;;5031207;28;20558;-70
2022/03/08 07:10:50;;;;;;;6.77;6.07;;;3.60;86.60;;;;;;5031342;28;20208;-69
2022/03/08 07:13:15;;;;;;;8.87;7.00;;;3.60;86.20;;;;;;5034793;28;20204;-69
2022/03/08 07:15:41;;;;;;;7.53;6.47;;;3.70;86.10;;;;;;5017489;28;20172;-70
2022/03/08 07:18:06;;;;;;;7.27;6.33;;;3.70;85.50;;;;;;5035123;28;20192;-70
2022/03/08 07:20:32;;;;;;;9.23;6.70;;;3.70;85.60;;;;;;5035136;28;20193;-69
2022/03/08 07:22:57;;;;;;;9.93;8.07;;;3.80;85.40;;;;;;5034872;28;20309;-69
2022/03/08 07:25:23;;;;;;;9.00;6.97;;;3.90;85.30;;;;;;5035240;28;20299;-70
2022/03/08 07:27:49;;;;;;;16.73;7.13;;;3.90;85.10;;;;;;5035110;28;20594;-69
2022/03/08 07:30:14;;;;;;;8.70;7.00;;;4.00;85.20;;;;;;5034723;28;20237;-70
2022/03/08 07:32:40;;;;;;;7.43;6.73;;;4.00;85.10;;;;;;5034658;28;20568;-70
2022/03/08 07:35:06;;;;;;;8.07;7.27;;;4.10;85.20;;;;;;5035251;28;20254;-69
2022/03/08 07:37:36;;;;;;;9.00;6.73;;;4.10;85.30;;;;;;5035263;28;20169;-66
2022/03/08 07:40:04;;;;;;;8.83;6.93;;;4.20;85.20;;;;;;5047464;28;20555;-70
2022/03/08 07:42:30;;;;;;;9.80;7.77;;;4.30;85.20;;;;;;5052608;28;20869;-70
2022/03/08 07:44:56;;;;;;;7.77;6.90;;;4.30;85.30;;;;;;5058103;28;20533;-70
2022/03/08 07:47:21;;;;;;;8.30;7.40;;;4.40;85.30;;;;;;5066270;28;20538;-70
2022/03/08 07:49:47;;;;;;;8.33;7.13;;;4.50;86.30;;;;;;5051909;28;20586;-70
2022/03/08 07:52:13;;;;;;;10.33;7.70;;;4.50;86.10;;;;;;5052691;28;20205;-71
2022/03/08 07:54:38;;;;;;;10.50;7.50;;;4.60;86.10;;;;;;5052259;28;20216;-70
2022/03/08 07:57:04;;;;;;;11.30;7.90;;;4.60;85.60;;;;;;5053116;28;20286;-70
2022/03/08 07:59:30;;;;;;;10.43;7.43;;;4.60;85.70;;;;;;5034836;28;20205;-69
2022/03/08 08:01:55;;;;;;;12.13;7.03;;;4.60;85.80;;;;;;5051951;28;20221;-69
2022/03/08 08:04:21;;;;;;;7.60;6.60;;;4.60;86.00;;;;;;5052772;28;20213;-69
2022/03/08 08:06:46;;;;;;;7.17;6.47;;;4.70;86.00;;;;;;5069714;28;20215;-69
2022/03/08 08:09:12;;;;;;;8.20;7.00;;;4.80;85.60;;;;;;5074089;28;20211;-69
2022/03/08 08:11:38;;;;;;;10.80;7.10;;;4.80;85.30;;;;;;5073320;28;20248;-69
2022/03/08 08:14:04;;;;;;;7.43;6.43;;;4.80;85.60;;;;;;5069419;28;20797;-69
2022/03/08 08:16:29;;;;;;;7.67;6.73;;;4.90;85.50;;;;;;5053703;28;20181;-69
2022/03/08 08:18:55;;;;;;;8.80;6.63;;;5.00;85.30;;;;;;5053496;28;20660;-69
2022/03/08 08:21:21;;;;;;;7.63;6.70;;;5.00;84.20;;;;;;5053718;28;20202;-69
2022/03/08 08:23:46;;;;;;;8.73;6.97;;;5.10;84.30;;;;;;5053067;28;20182;-69
2022/03/08 08:26:12;;;;;;;9.50;6.30;;;5.30;84.30;;;;;;5053477;28;20239;-69
2022/03/08 08:28:37;;;;;;;10.70;7.13;;;5.40;83.40;;;;;;5035629;28;20174;-69
2022/03/08 08:31:03;;;;;;;7.67;6.97;;;5.40;82.60;;;;;;5053135;28;20249;-69
2022/03/08 08:33:28;;;;;;;7.10;6.40;;;5.50;82.10;;;;;;5052949;28;20186;-69
2022/03/08 08:35:56;;;;;;;6.90;6.20;;;5.60;81.60;;;;;;5053386;28;20174;-70
2022/03/08 08:38:21;;;;;;;9.53;7.30;;;5.70;80.60;;;;;;5053284;28;20687;-69
2022/03/08 08:40:47;;;;;;;7.47;6.77;;;5.70;80.40;;;;;;5053032;28;20523;-68
2022/03/08 08:43:12;;;;;;;7.67;6.20;;;5.70;80.00;;;;;;5052818;28;20166;-69
2022/03/08 08:45:38;;;;;;;6.93;6.00;;;5.80;80.20;;;;;;5052811;28;20254;-69
2022/03/08 08:48:06;;;;;;;8.80;6.97;;;5.90;79.50;;;;;;5053107;28;20252;-70
2022/03/08 08:50:31;;;;;;;8.70;6.37;;;6.00;79.20;;;;;;5052570;28;20195;-69
2022/03/08 08:52:57;;;;;;;7.47;6.30;;;6.10;78.10;;;;;;5052445;28;20424;-69
2022/03/08 08:55:24;;;;;;;9.07;6.67;;;6.10;77.50;;;;;;5052345;28;20537;-69
2022/03/08 08:57:49;;;;;;;7.80;6.57;;;6.10;77.10;;;;;;5052568;28;20619;-69
2022/03/08 09:00:15;;;;;;;9.83;6.40;;;6.10;77.20;;;;;;5052364;28;20506;-69
2022/03/08 09:02:43;;;;;;;7.90;7.10;;;6.10;76.10;;;;;;5052335;28;20154;-69
2022/03/08 09:05:10;;;;;;;7.90;6.57;;;6.10;76.40;;;;;;5051353;28;20170;-70
2022/03/08 09:07:36;;;;;;;8.50;6.47;;;6.20;76.40;;;;;;5052319;28;20554;-68
2022/03/08 09:10:03;;;;;;;8.93;6.60;;;6.30;76.00;;;;;;5052550;28;20495;-69
2022/03/08 09:12:28;;;;;;;6.07;5.47;;;6.30;75.80;;;;;;5052625;28;20566;-69
2022/03/08 09:14:54;;;;;;;6.73;6.00;;;6.30;74.90;;;;;;5052667;28;20491;-69
2022/03/08 09:17:20;;;;;;;17.80;6.57;;;6.30;74.00;;;;;;5051193;28;20649;-69
2022/03/08 09:19:45;;;;;;;11.67;6.60;;;6.30;74.40;;;;;;5052575;28;20405;-70
2022/03/08 09:22:11;;;;;;;9.63;6.43;;;6.40;73.80;;;;;;5052342;28;20170;-70
2022/03/08 09:24:39;;;;;;;8.23;6.43;;;6.50;73.50;;;;;;5052396;28;20543;-69
2022/03/08 09:27:05;;;;;;;8.17;6.03;;;6.60;73.20;;;;;;5051168;28;20176;-70
2022/03/08 09:29:31;;;;;;;7.00;5.90;;;6.60;72.70;;;;;;5052295;28;20495;-71
2022/03/08 09:31:56;;;;;;;7.17;6.47;;;6.80;72.90;;;;;;5051813;28;20456;-70
2022/03/08 09:34:22;;;;;;;7.30;6.00;;;6.90;73.00;;;;;;5051320;28;20172;-70
2022/03/08 09:36:47;;;;;;;8.33;6.13;;;7.00;71.90;;;;;;5052346;28;20170;-70
2022/03/08 09:39:13;;;;;;;9.73;5.87;;;7.00;70.80;;;;;;5054850;28;20167;-71
2022/03/08 09:41:41;;;;;;;8.27;6.73;;;7.00;71.30;;;;;;5051466;28;20277;-69
2022/03/08 09:44:13;;;;;;;6.60;6.00;;;7.10;70.80;;;;;;5051806;28;20585;-70
2022/03/08 09:46:40;;;;;;;6.30;5.70;;;7.20;70.60;;;;;;5052046;28;20910;-70
2022/03/08 09:49:05;;;;;;;6.27;5.70;;;7.40;70.10;;;;;;5050046;28;20548;-70
2022/03/08 09:51:31;;;;;;;7.50;5.77;;;7.40;69.70;;;;;;5049799;28;20589;-69
2022/03/08 09:53:57;;;;;;;6.80;6.20;;;7.60;69.70;;;;;;5049507;28;20209;-70
2022/03/08 09:56:22;;;;;;;6.40;5.80;;;7.60;69.10;;;;;;5049762;28;20240;-70
2022/03/08 09:58:48;;;;;;;11.70;6.93;;;7.80;68.50;;;;;;5049492;28;20200;-70
2022/03/08 10:01:14;;;;;;;7.93;5.63;;;7.80;68.30;;;;;;5049800;28;20213;-70
2022/03/08 10:03:43;;;;;;;9.00;6.43;;;7.80;67.90;;;;;;5050283;28;20549;-69
2022/03/08 10:06:10;;;;;;;6.27;5.67;;;7.80;67.00;;;;;;5051752;28;20490;-70
2022/03/08 10:08:36;;;;;;;6.53;5.80;;;7.90;66.70;;;;;;5051346;28;20417;-68
2022/03/08 10:11:04;;;;;;;6.20;5.23;;;7.90;66.80;;;;;;5051458;28;20457;-69
2022/03/08 10:13:38;;;;;;;7.70;5.80;;;7.80;66.10;;;;;;5051067;28;20418;-68
2022/03/08 10:16:11;;;;;;;7.27;6.40;;;7.90;66.30;;;;;;5033857;28;20431;-69
2022/03/08 10:18:47;;;;;;;6.77;5.30;;;8.00;66.60;;;;;;5051619;28;20396;-69
2022/03/08 10:21:34;;;;;;;7.13;6.47;;;8.10;65.40;;;;;;5051465;28;20433;-69
2022/03/08 10:24:08;;;;;;;7.53;5.93;;;8.10;65.30;;;;;;5032983;28;20422;-69
2022/03/08 10:26:50;;;;;;;7.37;5.70;;;8.20;64.30;;;;;;5051262;28;20401;-69
2022/03/08 10:29:28;;;;;;;7.80;5.67;;;8.30;64.30;;;;;;5051159;28;20411;-69
2022/03/08 10:32:16;;;;;;;7.90;6.37;;;8.30;65.00;;;;;;5050551;28;21101;-70
2022/03/08 10:34:43;;;;;;;8.37;7.57;;;8.40;63.90;;;;;;5051140;28;20916;-69
2022/03/08 10:37:15;;;;;;;15.70;6.30;;;8.50;63.00;;;;;;5051254;28;20507;-70
2022/03/08 10:39:53;;;;;;;7.60;6.43;;;8.50;62.70;;;;;;5050987;28;20400;-70
2022/03/08 10:42:20;;;;;;;6.13;5.53;;;8.50;62.50;;;;;;5050584;28;20408;-69
2022/03/08 10:44:46;;;;;;;10.63;6.07;;;8.40;63.00;;;;;;5050796;28;20539;-70
2022/03/08 10:47:13;;;;;;;10.40;5.67;;;8.50;62.80;;;;;;5051112;28;20459;-69
2022/03/08 10:49:48;;;;;;;6.93;6.00;;;8.60;62.40;;;;;;5050699;28;20262;-69
2022/03/08 10:52:13;;;;;;;7.13;6.43;;;8.60;62.00;;;;;;5050618;28;20554;-68
2022/03/08 10:54:39;;;;;;;6.47;5.33;;;8.70;62.20;;;;;;5049392;28;20511;-69
2022/03/08 10:57:04;;;;;;;5.87;5.30;;;8.80;62.10;;;;;;5051116;28;20651;-72
2022/03/08 10:59:31;;;;;;;6.60;6.00;;;8.70;61.10;;;;;;5051179;28;20173;-70
2022/03/08 11:01:57;;;;;;;7.73;6.17;;;8.70;61.60;;;;;;5050222;28;20206;-71
2022/03/08 11:04:24;;;;;;;6.53;5.93;;;8.80;61.30;;;;;;5049485;28;20425;-70
2022/03/08 11:06:52;;;;;;;7.10;6.40;;;9.00;61.90;;;;;;5050979;28;20982;-71
2022/03/08 11:09:18;;;;;;;6.80;5.17;;;9.00;61.10;;;;;;5050894;28;20948;-70
2022/03/08 11:11:44;;;;;;;7.17;6.10;;;9.00;61.10;;;;;;5050825;28;20498;-70
2022/03/08 11:14:10;;;;;;;6.23;5.30;;;9.00;60.60;;;;;;5050921;28;20490;-70
2022/03/08 11:16:38;;;;;;;6.60;6.00;;;9.10;60.90;;;;;;5050727;28;20905;-70
2022/03/08 11:19:05;;;;;;;6.50;5.60;;;9.30;60.70;;;;;;5050508;28;20527;-70
2022/03/08 11:21:33;;;;;;;6.27;5.63;;;9.20;60.20;;;;;;5049493;28;20578;-70
2022/03/08 11:24:00;;;;;;;7.17;6.50;;;9.30;60.70;;;;;;5050580;28;20416;-70
2022/03/08 11:26:26;;;;;;;6.30;4.90;;;9.30;60.00;;;;;;5050658;28;20771;-69
2022/03/08 11:28:53;;;;;;;7.00;6.00;;;9.40;60.40;;;;;;5050550;28;20416;-69
2022/03/08 11:31:24;;;;;;;6.10;5.50;;;9.50;59.50;;;;;;5050518;28;20468;-69
2022/03/08 11:34:12;;;;;;;6.70;6.00;;;9.40;59.30;;;;;;5050458;28;20416;-70
2022/03/08 11:36:47;;;;;;;6.20;5.70;;;9.40;58.90;;;;;;5050196;28;20404;-69
2022/03/08 11:39:19;;;;;;;6.40;5.57;;;9.40;59.00;;;;;;5050551;28;20761;-69
2022/03/08 11:41:48;;;;;;;6.40;5.80;;;9.40;58.80;;;;;;5054102;28;21274;-70
2022/03/08 11:44:20;;;;;;;5.30;4.80;;;9.40;59.00;;;;;;5051673;28;20412;-69
2022/03/08 11:47:01;;;;;;;5.60;5.00;;;9.50;59.40;;;;;;5050360;28;20416;-70
2022/03/08 11:49:40;;;;;;;7.47;5.30;;;9.50;58.70;;;;;;5050316;28;20412;-70
2022/03/08 11:52:24;;;;;;;6.77;5.57;;;9.40;58.50;;;;;;5049648;28;20531;-70
2022/03/08 11:55:03;;;;;;;6.50;5.90;;;9.50;58.50;;;;;;5050178;28;20408;-69
2022/03/08 11:57:44;;;;;;;6.10;5.40;;;9.70;58.40;;;;;;5052869;28;20396;-70
2022/03/08 12:00:32;;;;;;;5.97;5.37;;;9.70;58.00;;;;;;5054214;28;20893;-70
2022/03/08 12:03:06;;;;;;;7.87;5.40;;;9.60;57.40;;;;;;5053752;28;20850;-70
2022/03/08 12:05:37;;;;;;;5.80;5.23;;;9.70;57.00;;;;;;5054289;28;20405;-69
2022/03/08 12:08:22;;;;;;;7.00;4.97;;;9.50;57.50;;;;;;5054226;28;20645;-69
2022/03/08 12:10:58;;;;;;;11.37;5.57;;;9.60;57.00;;;;;;5053829;28;20455;-69
2022/03/08 12:13:34;;;;;;;6.33;5.50;;;9.50;56.30;;;;;;5053583;28;20746;-69
2022/03/08 12:16:08;;;;;;;6.30;5.10;;;9.50;56.50;;;;;;5054432;28;20422;-69
2022/03/08 12:18:42;;;;;;;6.00;4.30;;;9.50;58.30;;;;;;5053567;28;20408;-68
2022/03/08 12:21:20;;;;;;;5.07;4.57;;;9.70;60.70;;;;;;5035556;28;20467;-69
2022/03/08 12:24:11;;;;;;;6.23;5.63;;;9.70;58.80;;;;;;5053936;28;20397;-70
2022/03/08 12:26:36;;;;;;;6.50;5.90;;;9.70;59.00;;;;;;5053515;28;20389;-69
2022/03/08 12:29:25;;;;;;;8.03;5.23;;;9.80;58.40;;;;;;5053139;28;20424;-70
2022/03/08 12:31:57;;;;;;;7.80;5.20;;;9.80;57.60;;;;;;5053103;28;20198;-69
2022/03/08 12:34:42;;;;;;;7.50;4.97;;;9.90;59.10;;;;;;5053661;28;20465;-68
2022/03/08 12:37:25;;;;;;;5.73;5.00;;;10.00;57.70;;;;;;5048079;28;20580;-70
2022/03/08 12:40:00;;;;;;;6.73;4.77;;;9.90;57.20;;;;;;5031753;28;20426;-69
2022/03/08 12:42:33;;;;;;;5.10;4.63;;;9.70;56.10;;;;;;5015161;28;20535;-69
2022/03/08 12:45:35;;;;;;;9.77;5.40;;;9.60;56.20;;;;;;5034427;28;20492;-70
2022/03/08 12:48:14;;;;;;;5.90;5.37;;;9.70;58.50;;;;;;4956827;28;20444;-70
2022/03/08 12:50:42;;;;;;;6.03;5.30;;;9.80;57.80;;;;;;4991057;28;20475;-70
2022/03/08 12:53:25;;;;;;;7.67;5.50;;;9.80;57.80;;;;;;4974433;28;20871;-70
2022/03/08 12:55:53;;;;;;;6.80;5.23;;;9.90;57.60;;;;;;4974257;28;20463;-69